sensor_id;sensor_type;location;lat;lon;timestamp;temperature;humidity
4518;DHT22;2271;49.464;11.070;2023-07-31T00:01:43;18.80;99.90
4518;DHT22;2271;49.464;11.070;2023-07-31T00:04:09;18.80;99.90
4518;DHT22;2271;49.464;11.070;2023-07-31T00:06:34;18.80;99.90
4518;DHT22;2271;49.464;11.070;2023-07-31T00:09:00;18.70;99.90
4518;DHT22;2271;49.464;11.070;2023-07-31T00:11:26;18.70;99.90
4518;DHT22;2271;49.464;11.070;2023-07-31T00:13:53;18.70;99.90
4518;DHT22;2271;49.464;11.070;2023-07-31T00:16:19;18.70;99.90
4518;DHT22;2271;49.464;11.070;2023-07-31T00:18:44;18.70;99.90
4518;DHT22;2271;49.464;11.070;2023-07-31T00:21:11;18.70;99.90
4518;DHT22;2271;49.464;11.070;2023-07-31T00:23:37;18.70;99.90
4518;DHT22;2271;49.464;11.070;2023-07-31T00:26:02;18.70;99.90
4518;DHT22;2271;49.464;11.070;2023-07-31T00:28:28;18.70;99.90
4518;DHT22;2271;49.464;11.070;2023-07-31T00:30:54;18.70;99.90
4518;DHT22;2271;49.464;11.070;2023-07-31T00:33:19;18.70;99.90
4518;DHT22;2271;49.464;11.070;2023-07-31T00:35:45;18.70;99.90
4518;DHT22;2271;49.464;11.070;2023-07-31T00:38:11;18.80;99.90
4518;DHT22;2271;49.464;11.070;2023-07-31T00:40:37;18.80;99.90
4518;DHT22;2271;49.464;11.070;2023-07-31T00:43:03;18.80;99.90
4518;DHT22;2271;49.464;11.070;2023-07-31T00:45:29;18.80;99.90
4518;DHT22;2271;49.464;11.070;2023-07-31T00:47:55;18.70;99.90
4518;DHT22;2271;49.464;11.070;2023-07-31T00:50:23;18.80;99.90
4518;DHT22;2271;49.464;11.070;2023-07-31T00:52:49;18.80;99.90
4518;DHT22;2271;49.464;11.070;2023-07-31T00:55:15;18.80;99.90
4518;DHT22;2271;49.464;11.070;2023-07-31T00:57:41;18.80;99.90
4518;DHT22;2271;49.464;11.070;2023-07-31T01:00:07;18.80;99.90
4518;DHT22;2271;49.464;11.070;2023-07-31T01:02:33;18.80;99.90
4518;DHT22;2271;49.464;11.070;2023-07-31T01:05:00;18.80;99.90
4518;DHT22;2271;49.464;11.070;2023-07-31T01:07:39;18.80;99.90
4518;DHT22;2271;49.464;11.070;2023-07-31T01:10:15;18.80;99.90
4518;DHT22;2271;49.464;11.070;2023-07-31T01:12:42;18.80;99.90
4518;DHT22;2271;49.464;11.070;2023-07-31T01:15:09;18.80;99.90
4518;DHT22;2271;49.464;11.070;2023-07-31T01:17:38;18.80;99.90
4518;DHT22;2271;49.464;11.070;2023-07-31T01:20:09;18.80;99.90
4518;DHT22;2271;49.464;11.070;2023-07-31T01:28:13;18.70;99.90
4518;DHT22;2271;49.464;11.070;2023-07-31T01:30:43;18.70;99.90
4518;DHT22;2271;49.464;11.070;2023-07-31T01:33:10;18.70;99.90
4518;DHT22;2271;49.464;11.070;2023-07-31T01:35:37;18.70;99.90
4518;DHT22;2271;49.464;11.070;2023-07-31T01:38:03;18.70;99.90
4518;DHT22;2271;49.464;11.070;2023-07-31T01:40:29;18.70;99.90
4518;DHT22;2271;49.464;11.070;2023-07-31T01:42:55;18.70;99.90
4518;DHT22;2271;49.464;11.070;2023-07-31T01:45:21;18.70;99.90
4518;DHT22;2271;49.464;11.070;2023-07-31T01:47:46;18.70;99.90
4518;DHT22;2271;49.464;11.070;2023-07-31T01:50:12;18.70;99.90
4518;DHT22;2271;49.464;11.070;2023-07-31T01:52:38;18.70;99.90
4518;DHT22;2271;49.464;11.070;2023-07-31T01:55:04;18.70;99.90
4518;DHT22;2271;49.464;11.070;2023-07-31T01:57:29;18.70;99.90
4518;DHT22;2271;49.464;11.070;2023-07-31T01:59:55;18.70;99.90
4518;DHT22;2271;49.464;11.070;2023-07-31T02:02:22;18.70;99.90
4518;DHT22;2271;49.464;11.070;2023-07-31T02:04:48;18.70;99.90
4518;DHT22;2271;49.464;11.070;2023-07-31T02:07:14;18.70;99.90
4518;DHT22;2271;49.464;11.070;2023-07-31T02:09:40;18.70;99.90
4518;DHT22;2271;49.464;11.070;2023-07-31T02:12:06;18.70;99.90
4518;DHT22;2271;49.464;11.070;2023-07-31T02:14:34;18.70;99.90
4518;DHT22;2271;49.464;11.070;2023-07-31T02:16:59;18.70;99.90
4518;DHT22;2271;49.464;11.070;2023-07-31T02:19:25;18.70;99.90
4518;DHT22;2271;49.464;11.070;2023-07-31T02:21:51;18.60;99.90
4518;DHT22;2271;49.464;11.070;2023-07-31T02:24:16;18.60;99.90
4518;DHT22;2271;49.464;11.070;2023-07-31T02:26:42;18.60;99.90
4518;DHT22;2271;49.464;11.070;2023-07-31T02:29:08;18.60;99.90
4518;DHT22;2271;49.464;11.070;2023-07-31T02:31:34;18.60;99.90
4518;DHT22;2271;49.464;11.070;2023-07-31T02:34:00;18.60;99.90
4518;DHT22;2271;49.464;11.070;2023-07-31T02:36:25;18.70;99.90
4518;DHT22;2271;49.464;11.070;2023-07-31T02:38:51;18.60;99.90
4518;DHT22;2271;49.464;11.070;2023-07-31T02:41:17;18.60;99.90
4518;DHT22;2271;49.464;11.070;2023-07-31T02:43:42;18.60;99.90
4518;DHT22;2271;49.464;11.070;2023-07-31T02:46:08;18.60;99.90
4518;DHT22;2271;49.464;11.070;2023-07-31T02:48:33;18.60;99.90
4518;DHT22;2271;49.464;11.070;2023-07-31T02:50:59;18.60;99.90
4518;DHT22;2271;49.464;11.070;2023-07-31T02:53:25;18.60;99.90
4518;DHT22;2271;49.464;11.070;2023-07-31T02:55:50;18.60;99.90
4518;DHT22;2271;49.464;11.070;2023-07-31T02:58:16;18.60;99.90
4518;DHT22;2271;49.464;11.070;2023-07-31T03:00:45;18.60;99.90
4518;DHT22;2271;49.464;11.070;2023-07-31T03:03:11;18.60;99.90
4518;DHT22;2271;49.464;11.070;2023-07-31T03:05:37;18.60;99.90
4518;DHT22;2271;49.464;11.070;2023-07-31T03:08:02;18.60;99.90
4518;DHT22;2271;49.464;11.070;2023-07-31T03:10:29;18.60;99.90
4518;DHT22;2271;49.464;11.070;2023-07-31T03:12:54;18.60;99.90
4518;DHT22;2271;49.464;11.070;2023-07-31T03:15:20;18.60;99.90
4518;DHT22;2271;49.464;11.070;2023-07-31T03:17:46;18.60;99.90
4518;DHT22;2271;49.464;11.070;2023-07-31T03:20:11;18.40;99.90
4518;DHT22;2271;49.464;11.070;2023-07-31T03:22:37;18.40;99.90
4518;DHT22;2271;49.464;11.070;2023-07-31T03:25:03;18.30;99.90
4518;DHT22;2271;49.464;11.070;2023-07-31T03:27:29;18.40;99.90
4518;DHT22;2271;49.464;11.070;2023-07-31T03:29:55;18.30;99.90
4518;DHT22;2271;49.464;11.070;2023-07-31T03:32:20;18.30;99.90
4518;DHT22;2271;49.464;11.070;2023-07-31T03:34:46;18.40;99.90
4518;DHT22;2271;49.464;11.070;2023-07-31T03:37:11;18.40;99.90
4518;DHT22;2271;49.464;11.070;2023-07-31T03:39:37;18.40;99.90
4518;DHT22;2271;49.464;11.070;2023-07-31T03:42:03;18.40;99.90
4518;DHT22;2271;49.464;11.070;2023-07-31T03:44:28;18.30;99.90
4518;DHT22;2271;49.464;11.070;2023-07-31T03:46:54;18.30;99.90
4518;DHT22;2271;49.464;11.070;2023-07-31T03:49:20;18.30;99.90
4518;DHT22;2271;49.464;11.070;2023-07-31T03:51:45;18.40;99.90
4518;DHT22;2271;49.464;11.070;2023-07-31T03:54:11;18.40;99.90
4518;DHT22;2271;49.464;11.070;2023-07-31T03:56:38;18.40;99.90
4518;DHT22;2271;49.464;11.070;2023-07-31T03:59:04;18.30;99.90
4518;DHT22;2271;49.464;11.070;2023-07-31T04:01:30;18.30;99.90
4518;DHT22;2271;49.464;11.070;2023-07-31T04:03:55;18.30;99.90
4518;DHT22;2271;49.464;11.070;2023-07-31T04:06:21;18.30;99.90
4518;DHT22;2271;49.464;11.070;2023-07-31T04:08:46;18.30;99.90
4518;DHT22;2271;49.464;11.070;2023-07-31T04:11:12;18.30;99.90
4518;DHT22;2271;49.464;11.070;2023-07-31T04:13:38;18.30;99.90
4518;DHT22;2271;49.464;11.070;2023-07-31T04:16:04;18.30;99.90
4518;DHT22;2271;49.464;11.070;2023-07-31T04:18:30;18.50;99.90
4518;DHT22;2271;49.464;11.070;2023-07-31T04:20:56;18.60;99.90
4518;DHT22;2271;49.464;11.070;2023-07-31T04:23:25;18.50;99.90
4518;DHT22;2271;49.464;11.070;2023-07-31T04:25:51;18.40;99.90
4518;DHT22;2271;49.464;11.070;2023-07-31T04:28:16;18.40;99.90
4518;DHT22;2271;49.464;11.070;2023-07-31T04:30:42;18.40;99.90
4518;DHT22;2271;49.464;11.070;2023-07-31T04:33:08;18.40;99.90
4518;DHT22;2271;49.464;11.070;2023-07-31T04:35:33;18.40;99.90
4518;DHT22;2271;49.464;11.070;2023-07-31T04:37:59;18.40;99.90
4518;DHT22;2271;49.464;11.070;2023-07-31T04:40:24;18.40;99.90
4518;DHT22;2271;49.464;11.070;2023-07-31T04:42:50;18.30;99.90
4518;DHT22;2271;49.464;11.070;2023-07-31T04:45:16;18.40;99.90
4518;DHT22;2271;49.464;11.070;2023-07-31T04:47:42;18.40;99.90
4518;DHT22;2271;49.464;11.070;2023-07-31T04:50:08;18.30;99.90
4518;DHT22;2271;49.464;11.070;2023-07-31T04:52:33;18.30;99.90
4518;DHT22;2271;49.464;11.070;2023-07-31T04:54:59;18.40;99.90
4518;DHT22;2271;49.464;11.070;2023-07-31T04:57:24;18.40;99.90
4518;DHT22;2271;49.464;11.070;2023-07-31T04:59:50;18.40;99.90
4518;DHT22;2271;49.464;11.070;2023-07-31T05:02:16;18.40;99.90
4518;DHT22;2271;49.464;11.070;2023-07-31T05:04:41;18.40;99.90
4518;DHT22;2271;49.464;11.070;2023-07-31T05:07:07;18.40;99.90
4518;DHT22;2271;49.464;11.070;2023-07-31T05:09:32;18.40;99.90
4518;DHT22;2271;49.464;11.070;2023-07-31T05:11:58;18.40;99.90
4518;DHT22;2271;49.464;11.070;2023-07-31T05:14:24;18.40;99.90
4518;DHT22;2271;49.464;11.070;2023-07-31T05:16:49;18.40;99.90
4518;DHT22;2271;49.464;11.070;2023-07-31T05:19:15;18.40;99.90
4518;DHT22;2271;49.464;11.070;2023-07-31T05:21:40;18.40;99.90
4518;DHT22;2271;49.464;11.070;2023-07-31T05:24:06;18.40;99.90
4518;DHT22;2271;49.464;11.070;2023-07-31T05:26:32;18.40;99.90
4518;DHT22;2271;49.464;11.070;2023-07-31T05:28:57;18.40;99.90
4518;DHT22;2271;49.464;11.070;2023-07-31T05:31:23;18.50;99.90
4518;DHT22;2271;49.464;11.070;2023-07-31T05:33:50;18.60;99.90
4518;DHT22;2271;49.464;11.070;2023-07-31T05:36:16;18.50;99.90
4518;DHT22;2271;49.464;11.070;2023-07-31T05:38:42;18.50;99.90
4518;DHT22;2271;49.464;11.070;2023-07-31T05:41:09;18.50;99.90
4518;DHT22;2271;49.464;11.070;2023-07-31T05:43:35;18.50;99.90
4518;DHT22;2271;49.464;11.070;2023-07-31T05:46:01;18.50;99.90
4518;DHT22;2271;49.464;11.070;2023-07-31T05:48:27;18.50;99.90
4518;DHT22;2271;49.464;11.070;2023-07-31T05:50:52;18.50;99.90
4518;DHT22;2271;49.464;11.070;2023-07-31T05:53:18;18.60;99.90
4518;DHT22;2271;49.464;11.070;2023-07-31T05:55:43;18.60;99.90
4518;DHT22;2271;49.464;11.070;2023-07-31T05:58:09;18.60;99.90
4518;DHT22;2271;49.464;11.070;2023-07-31T06:00:34;18.70;99.90
4518;DHT22;2271;49.464;11.070;2023-07-31T06:03:00;18.70;99.90
4518;DHT22;2271;49.464;11.070;2023-07-31T06:05:26;18.60;99.90
4518;DHT22;2271;49.464;11.070;2023-07-31T06:07:53;18.70;99.90
4518;DHT22;2271;49.464;11.070;2023-07-31T06:10:19;18.70;99.90
4518;DHT22;2271;49.464;11.070;2023-07-31T06:12:44;18.70;99.90
4518;DHT22;2271;49.464;11.070;2023-07-31T06:15:10;18.80;99.90
4518;DHT22;2271;49.464;11.070;2023-07-31T06:17:36;18.80;99.90
4518;DHT22;2271;49.464;11.070;2023-07-31T06:20:02;18.80;99.90
4518;DHT22;2271;49.464;11.070;2023-07-31T06:22:30;18.80;99.90
4518;DHT22;2271;49.464;11.070;2023-07-31T06:24:56;18.90;99.90
4518;DHT22;2271;49.464;11.070;2023-07-31T06:27:22;18.90;99.90
4518;DHT22;2271;49.464;11.070;2023-07-31T06:29:48;19.00;99.90
4518;DHT22;2271;49.464;11.070;2023-07-31T06:32:13;19.10;99.90
4518;DHT22;2271;49.464;11.070;2023-07-31T06:34:39;19.20;99.90
4518;DHT22;2271;49.464;11.070;2023-07-31T06:37:05;19.30;99.90
4518;DHT22;2271;49.464;11.070;2023-07-31T06:39:31;19.40;99.90
4518;DHT22;2271;49.464;11.070;2023-07-31T06:41:56;19.40;99.90
4518;DHT22;2271;49.464;11.070;2023-07-31T06:44:22;19.50;99.90
4518;DHT22;2271;49.464;11.070;2023-07-31T06:46:47;19.50;99.90
4518;DHT22;2271;49.464;11.070;2023-07-31T06:49:13;19.50;99.90
4518;DHT22;2271;49.464;11.070;2023-07-31T06:51:40;19.60;99.90
4518;DHT22;2271;49.464;11.070;2023-07-31T06:54:07;19.50;99.90
4518;DHT22;2271;49.464;11.070;2023-07-31T06:56:33;19.50;99.90
4518;DHT22;2271;49.464;11.070;2023-07-31T06:58:58;19.50;99.90
4518;DHT22;2271;49.464;11.070;2023-07-31T07:01:24;19.50;99.90
4518;DHT22;2271;49.464;11.070;2023-07-31T07:03:50;19.50;99.90
4518;DHT22;2271;49.464;11.070;2023-07-31T07:06:18;19.50;99.90
4518;DHT22;2271;49.464;11.070;2023-07-31T07:08:44;19.60;99.90
4518;DHT22;2271;49.464;11.070;2023-07-31T07:11:09;19.60;99.90
4518;DHT22;2271;49.464;11.070;2023-07-31T07:13:35;19.60;99.90
4518;DHT22;2271;49.464;11.070;2023-07-31T07:16:01;19.50;99.90
4518;DHT22;2271;49.464;11.070;2023-07-31T07:18:26;19.50;99.90
4518;DHT22;2271;49.464;11.070;2023-07-31T07:20:53;19.60;99.90
4518;DHT22;2271;49.464;11.070;2023-07-31T07:23:20;19.60;99.90
4518;DHT22;2271;49.464;11.070;2023-07-31T07:25:47;19.60;99.90
4518;DHT22;2271;49.464;11.070;2023-07-31T07:28:13;19.60;99.90
4518;DHT22;2271;49.464;11.070;2023-07-31T07:30:39;19.70;99.90
4518;DHT22;2271;49.464;11.070;2023-07-31T07:33:05;19.70;99.90
4518;DHT22;2271;49.464;11.070;2023-07-31T07:35:33;19.80;99.90
4518;DHT22;2271;49.464;11.070;2023-07-31T07:38:00;19.80;99.90
4518;DHT22;2271;49.464;11.070;2023-07-31T07:40:26;19.80;99.90
4518;DHT22;2271;49.464;11.070;2023-07-31T07:42:51;19.80;99.90
4518;DHT22;2271;49.464;11.070;2023-07-31T07:45:17;19.80;99.90
4518;DHT22;2271;49.464;11.070;2023-07-31T07:47:43;19.80;99.90
4518;DHT22;2271;49.464;11.070;2023-07-31T07:50:09;19.80;99.90
4518;DHT22;2271;49.464;11.070;2023-07-31T07:52:34;19.80;99.90
4518;DHT22;2271;49.464;11.070;2023-07-31T07:55:00;19.90;99.90
4518;DHT22;2271;49.464;11.070;2023-07-31T07:57:26;19.90;99.90
4518;DHT22;2271;49.464;11.070;2023-07-31T07:59:52;19.90;99.90
4518;DHT22;2271;49.464;11.070;2023-07-31T08:02:18;20.00;99.90
4518;DHT22;2271;49.464;11.070;2023-07-31T08:04:43;20.10;99.90
4518;DHT22;2271;49.464;11.070;2023-07-31T08:07:11;20.10;99.90
4518;DHT22;2271;49.464;11.070;2023-07-31T08:09:40;20.20;99.90
4518;DHT22;2271;49.464;11.070;2023-07-31T08:12:07;20.30;99.90
4518;DHT22;2271;49.464;11.070;2023-07-31T08:14:33;20.40;99.90
4518;DHT22;2271;49.464;11.070;2023-07-31T08:17:00;20.50;99.90
4518;DHT22;2271;49.464;11.070;2023-07-31T08:19:26;20.50;99.90
4518;DHT22;2271;49.464;11.070;2023-07-31T08:21:51;20.60;99.90
4518;DHT22;2271;49.464;11.070;2023-07-31T08:24:17;20.70;99.90
4518;DHT22;2271;49.464;11.070;2023-07-31T08:26:43;20.80;99.90
4518;DHT22;2271;49.464;11.070;2023-07-31T08:29:08;20.90;99.90
4518;DHT22;2271;49.464;11.070;2023-07-31T08:31:34;21.00;99.90
4518;DHT22;2271;49.464;11.070;2023-07-31T08:34:00;21.10;99.90
4518;DHT22;2271;49.464;11.070;2023-07-31T08:36:26;21.30;99.90
4518;DHT22;2271;49.464;11.070;2023-07-31T08:38:52;21.70;99.90
4518;DHT22;2271;49.464;11.070;2023-07-31T08:41:17;22.00;99.90
4518;DHT22;2271;49.464;11.070;2023-07-31T08:43:47;22.10;99.90
4518;DHT22;2271;49.464;11.070;2023-07-31T08:46:15;22.20;99.90
4518;DHT22;2271;49.464;11.070;2023-07-31T08:48:42;22.30;99.90
4518;DHT22;2271;49.464;11.070;2023-07-31T08:51:08;22.50;99.90
4518;DHT22;2271;49.464;11.070;2023-07-31T08:53:33;22.80;99.90
4518;DHT22;2271;49.464;11.070;2023-07-31T08:55:59;23.00;99.90
4518;DHT22;2271;49.464;11.070;2023-07-31T08:58:28;23.10;99.90
4518;DHT22;2271;49.464;11.070;2023-07-31T09:00:57;23.00;99.90
4518;DHT22;2271;49.464;11.070;2023-07-31T09:03:25;22.80;99.90
4518;DHT22;2271;49.464;11.070;2023-07-31T09:05:51;22.70;99.90
4518;DHT22;2271;49.464;11.070;2023-07-31T09:08:20;22.70;99.90
4518;DHT22;2271;49.464;11.070;2023-07-31T09:10:47;22.90;99.90
4518;DHT22;2271;49.464;11.070;2023-07-31T09:13:16;23.10;99.90
4518;DHT22;2271;49.464;11.070;2023-07-31T09:15:45;23.40;99.90
4518;DHT22;2271;49.464;11.070;2023-07-31T09:18:11;23.60;99.90
4518;DHT22;2271;49.464;11.070;2023-07-31T09:20:37;24.00;99.90
4518;DHT22;2271;49.464;11.070;2023-07-31T09:23:10;24.30;99.90
4518;DHT22;2271;49.464;11.070;2023-07-31T09:25:36;24.60;99.90
4518;DHT22;2271;49.464;11.070;2023-07-31T09:28:07;24.60;99.90
4518;DHT22;2271;49.464;11.070;2023-07-31T09:30:51;24.80;99.90
4518;DHT22;2271;49.464;11.070;2023-07-31T09:33:18;24.60;99.90
4518;DHT22;2271;49.464;11.070;2023-07-31T09:35:44;24.20;99.90
4518;DHT22;2271;49.464;11.070;2023-07-31T09:38:12;24.00;99.90
4518;DHT22;2271;49.464;11.070;2023-07-31T09:40:40;23.90;99.90
4518;DHT22;2271;49.464;11.070;2023-07-31T09:43:07;24.00;99.90
4518;DHT22;2271;49.464;11.070;2023-07-31T09:45:44;24.00;99.90
4518;DHT22;2271;49.464;11.070;2023-07-31T09:48:17;24.00;99.90
4518;DHT22;2271;49.464;11.070;2023-07-31T09:50:45;24.00;99.90
4518;DHT22;2271;49.464;11.070;2023-07-31T09:53:11;23.90;99.90
4518;DHT22;2271;49.464;11.070;2023-07-31T09:55:38;23.80;99.90
4518;DHT22;2271;49.464;11.070;2023-07-31T09:58:05;23.50;99.90
4518;DHT22;2271;49.464;11.070;2023-07-31T10:00:31;23.30;99.90
4518;DHT22;2271;49.464;11.070;2023-07-31T10:03:02;23.10;99.90
4518;DHT22;2271;49.464;11.070;2023-07-31T10:05:58;23.00;99.90
4518;DHT22;2271;49.464;11.070;2023-07-31T10:08:31;22.90;99.90
4518;DHT22;2271;49.464;11.070;2023-07-31T10:11:01;23.00;99.90
4518;DHT22;2271;49.464;11.070;2023-07-31T10:13:28;23.10;99.90
4518;DHT22;2271;49.464;11.070;2023-07-31T10:15:59;23.20;99.90
4518;DHT22;2271;49.464;11.070;2023-07-31T10:18:26;23.10;99.90
4518;DHT22;2271;49.464;11.070;2023-07-31T10:20:53;23.00;99.90
4518;DHT22;2271;49.464;11.070;2023-07-31T10:23:20;22.90;99.90
4518;DHT22;2271;49.464;11.070;2023-07-31T10:25:46;22.70;99.90
4518;DHT22;2271;49.464;11.070;2023-07-31T10:28:12;22.60;99.90
4518;DHT22;2271;49.464;11.070;2023-07-31T10:30:39;22.40;99.90
4518;DHT22;2271;49.464;11.070;2023-07-31T10:33:05;22.30;99.90
4518;DHT22;2271;49.464;11.070;2023-07-31T10:35:31;22.20;99.90
4518;DHT22;2271;49.464;11.070;2023-07-31T10:38:12;22.10;99.90
4518;DHT22;2271;49.464;11.070;2023-07-31T10:40:38;22.20;99.90
4518;DHT22;2271;49.464;11.070;2023-07-31T10:43:05;22.50;99.90
4518;DHT22;2271;49.464;11.070;2023-07-31T10:45:34;23.00;99.90
4518;DHT22;2271;49.464;11.070;2023-07-31T10:48:03;23.20;99.90
4518;DHT22;2271;49.464;11.070;2023-07-31T10:50:30;23.20;99.90
4518;DHT22;2271;49.464;11.070;2023-07-31T10:52:58;23.30;99.90
4518;DHT22;2271;49.464;11.070;2023-07-31T10:55:42;23.20;99.90
4518;DHT22;2271;49.464;11.070;2023-07-31T10:58:13;23.20;99.90
4518;DHT22;2271;49.464;11.070;2023-07-31T11:00:43;23.20;99.90
4518;DHT22;2271;49.464;11.070;2023-07-31T11:03:17;23.20;99.90
4518;DHT22;2271;49.464;11.070;2023-07-31T11:05:50;23.20;99.90
4518;DHT22;2271;49.464;11.070;2023-07-31T11:10:47;22.90;99.90
4518;DHT22;2271;49.464;11.070;2023-07-31T11:13:13;22.80;99.90
4518;DHT22;2271;49.464;11.070;2023-07-31T11:15:39;22.70;99.90
4518;DHT22;2271;49.464;11.070;2023-07-31T11:18:05;22.60;99.90
4518;DHT22;2271;49.464;11.070;2023-07-31T11:20:32;22.50;99.90
4518;DHT22;2271;49.464;11.070;2023-07-31T11:23:02;22.50;99.90
4518;DHT22;2271;49.464;11.070;2023-07-31T11:25:29;22.40;99.90
4518;DHT22;2271;49.464;11.070;2023-07-31T11:27:55;22.40;99.90
4518;DHT22;2271;49.464;11.070;2023-07-31T11:30:21;22.40;99.90
4518;DHT22;2271;49.464;11.070;2023-07-31T11:32:47;22.30;99.90
4518;DHT22;2271;49.464;11.070;2023-07-31T11:35:13;22.30;99.90
4518;DHT22;2271;49.464;11.070;2023-07-31T11:37:40;22.20;99.90
4518;DHT22;2271;49.464;11.070;2023-07-31T11:40:06;22.20;99.90
4518;DHT22;2271;49.464;11.070;2023-07-31T11:42:32;22.20;99.90
4518;DHT22;2271;49.464;11.070;2023-07-31T11:44:58;22.10;99.90
4518;DHT22;2271;49.464;11.070;2023-07-31T11:47:25;22.10;99.90
4518;DHT22;2271;49.464;11.070;2023-07-31T11:49:51;22.10;99.90
4518;DHT22;2271;49.464;11.070;2023-07-31T11:52:18;22.10;99.90
4518;DHT22;2271;49.464;11.070;2023-07-31T11:54:46;22.10;99.90
4518;DHT22;2271;49.464;11.070;2023-07-31T11:57:12;22.20;99.90
4518;DHT22;2271;49.464;11.070;2023-07-31T11:59:39;22.30;99.90
4518;DHT22;2271;49.464;11.070;2023-07-31T12:02:05;22.30;99.90
4518;DHT22;2271;49.464;11.070;2023-07-31T12:04:31;22.40;99.90
4518;DHT22;2271;49.464;11.070;2023-07-31T12:06:56;22.50;99.90
4518;DHT22;2271;49.464;11.070;2023-07-31T12:09:25;22.60;99.90
4518;DHT22;2271;49.464;11.070;2023-07-31T12:11:51;22.60;99.90
4518;DHT22;2271;49.464;11.070;2023-07-31T12:14:21;22.60;99.90
4518;DHT22;2271;49.464;11.070;2023-07-31T12:16:47;22.60;99.90
4518;DHT22;2271;49.464;11.070;2023-07-31T12:19:13;22.60;99.90
4518;DHT22;2271;49.464;11.070;2023-07-31T12:21:39;22.60;99.90
4518;DHT22;2271;49.464;11.070;2023-07-31T12:24:04;22.60;99.90
4518;DHT22;2271;49.464;11.070;2023-07-31T12:26:36;22.60;99.90
4518;DHT22;2271;49.464;11.070;2023-07-31T12:29:02;22.60;99.90
4518;DHT22;2271;49.464;11.070;2023-07-31T12:31:28;22.60;99.90
4518;DHT22;2271;49.464;11.070;2023-07-31T12:33:55;22.60;99.90
4518;DHT22;2271;49.464;11.070;2023-07-31T12:36:23;22.60;99.90
4518;DHT22;2271;49.464;11.070;2023-07-31T12:38:50;22.70;99.90
4518;DHT22;2271;49.464;11.070;2023-07-31T12:41:16;22.80;99.90
4518;DHT22;2271;49.464;11.070;2023-07-31T12:43:43;22.80;99.90
4518;DHT22;2271;49.464;11.070;2023-07-31T12:46:09;22.80;99.90
4518;DHT22;2271;49.464;11.070;2023-07-31T12:48:35;22.80;99.90
4518;DHT22;2271;49.464;11.070;2023-07-31T12:51:01;22.80;99.90
4518;DHT22;2271;49.464;11.070;2023-07-31T12:53:28;22.80;99.90
4518;DHT22;2271;49.464;11.070;2023-07-31T12:55:54;22.70;99.90
4518;DHT22;2271;49.464;11.070;2023-07-31T12:58:19;22.70;99.90
4518;DHT22;2271;49.464;11.070;2023-07-31T13:00:45;22.70;99.90
4518;DHT22;2271;49.464;11.070;2023-07-31T13:03:11;22.70;99.90
4518;DHT22;2271;49.464;11.070;2023-07-31T13:05:36;22.70;99.90
4518;DHT22;2271;49.464;11.070;2023-07-31T13:08:02;22.80;99.90
4518;DHT22;2271;49.464;11.070;2023-07-31T13:10:28;22.80;99.90
4518;DHT22;2271;49.464;11.070;2023-07-31T13:12:55;22.90;99.90
4518;DHT22;2271;49.464;11.070;2023-07-31T13:15:21;23.00;99.90
4518;DHT22;2271;49.464;11.070;2023-07-31T13:17:47;23.00;99.90
4518;DHT22;2271;49.464;11.070;2023-07-31T13:20:12;23.00;99.90
4518;DHT22;2271;49.464;11.070;2023-07-31T13:22:38;23.00;99.90
4518;DHT22;2271;49.464;11.070;2023-07-31T13:25:04;23.00;99.90
4518;DHT22;2271;49.464;11.070;2023-07-31T13:27:30;23.10;99.90
4518;DHT22;2271;49.464;11.070;2023-07-31T13:29:56;23.10;99.90
4518;DHT22;2271;49.464;11.070;2023-07-31T13:32:22;23.20;99.90
4518;DHT22;2271;49.464;11.070;2023-07-31T13:34:48;23.30;99.90
4518;DHT22;2271;49.464;11.070;2023-07-31T13:37:14;23.40;99.90
4518;DHT22;2271;49.464;11.070;2023-07-31T13:39:41;23.60;99.90
4518;DHT22;2271;49.464;11.070;2023-07-31T13:42:08;23.80;99.90
4518;DHT22;2271;49.464;11.070;2023-07-31T13:44:34;23.90;99.90
4518;DHT22;2271;49.464;11.070;2023-07-31T13:47:01;24.00;99.90
4518;DHT22;2271;49.464;11.070;2023-07-31T13:49:27;23.90;99.90
4518;DHT22;2271;49.464;11.070;2023-07-31T13:51:52;24.00;99.90
4518;DHT22;2271;49.464;11.070;2023-07-31T13:54:18;24.00;99.90
4518;DHT22;2271;49.464;11.070;2023-07-31T13:56:44;24.20;99.90
4518;DHT22;2271;49.464;11.070;2023-07-31T13:59:10;24.20;99.90
4518;DHT22;2271;49.464;11.070;2023-07-31T14:01:36;24.10;99.90
4518;DHT22;2271;49.464;11.070;2023-07-31T14:04:02;24.10;99.90
4518;DHT22;2271;49.464;11.070;2023-07-31T14:06:27;23.90;99.90
4518;DHT22;2271;49.464;11.070;2023-07-31T14:08:53;23.80;99.90
4518;DHT22;2271;49.464;11.070;2023-07-31T14:11:19;23.80;99.90
4518;DHT22;2271;49.464;11.070;2023-07-31T14:13:44;23.70;99.90
4518;DHT22;2271;49.464;11.070;2023-07-31T14:16:10;23.70;99.90
4518;DHT22;2271;49.464;11.070;2023-07-31T14:18:36;23.60;99.90
4518;DHT22;2271;49.464;11.070;2023-07-31T14:21:01;23.60;99.90
4518;DHT22;2271;49.464;11.070;2023-07-31T14:23:27;23.50;99.90
4518;DHT22;2271;49.464;11.070;2023-07-31T14:25:52;23.40;99.90
4518;DHT22;2271;49.464;11.070;2023-07-31T14:28:18;23.40;99.90
4518;DHT22;2271;49.464;11.070;2023-07-31T14:30:43;23.50;99.90
4518;DHT22;2271;49.464;11.070;2023-07-31T14:33:09;23.40;99.90
4518;DHT22;2271;49.464;11.070;2023-07-31T14:35:35;23.40;99.90
4518;DHT22;2271;49.464;11.070;2023-07-31T14:38:01;23.30;99.90
4518;DHT22;2271;49.464;11.070;2023-07-31T14:40:27;23.30;99.90
4518;DHT22;2271;49.464;11.070;2023-07-31T14:42:52;23.20;99.90
4518;DHT22;2271;49.464;11.070;2023-07-31T14:45:18;23.20;99.90
4518;DHT22;2271;49.464;11.070;2023-07-31T14:47:44;23.20;99.90
4518;DHT22;2271;49.464;11.070;2023-07-31T14:50:10;23.20;99.90
4518;DHT22;2271;49.464;11.070;2023-07-31T14:52:35;23.20;99.90
4518;DHT22;2271;49.464;11.070;2023-07-31T14:55:01;23.10;99.90
4518;DHT22;2271;49.464;11.070;2023-07-31T14:57:27;23.00;99.90
4518;DHT22;2271;49.464;11.070;2023-07-31T14:59:52;23.00;99.90
4518;DHT22;2271;49.464;11.070;2023-07-31T15:02:18;23.00;99.90
4518;DHT22;2271;49.464;11.070;2023-07-31T15:04:44;22.90;99.90
4518;DHT22;2271;49.464;11.070;2023-07-31T15:07:09;22.80;99.90
4518;DHT22;2271;49.464;11.070;2023-07-31T15:09:35;22.80;99.90
4518;DHT22;2271;49.464;11.070;2023-07-31T15:12:01;22.80;99.90
4518;DHT22;2271;49.464;11.070;2023-07-31T15:14:26;22.70;99.90
4518;DHT22;2271;49.464;11.070;2023-07-31T15:16:56;22.70;99.90
4518;DHT22;2271;49.464;11.070;2023-07-31T15:19:22;22.60;99.90
4518;DHT22;2271;49.464;11.070;2023-07-31T15:21:49;22.60;99.90
4518;DHT22;2271;49.464;11.070;2023-07-31T15:24:14;22.50;99.90
4518;DHT22;2271;49.464;11.070;2023-07-31T15:26:40;22.60;99.90
4518;DHT22;2271;49.464;11.070;2023-07-31T15:29:07;22.50;99.90
4518;DHT22;2271;49.464;11.070;2023-07-31T15:31:45;22.50;99.90
4518;DHT22;2271;49.464;11.070;2023-07-31T15:34:12;22.50;99.90
4518;DHT22;2271;49.464;11.070;2023-07-31T15:36:38;22.50;99.90
4518;DHT22;2271;49.464;11.070;2023-07-31T15:39:03;22.50;99.90
4518;DHT22;2271;49.464;11.070;2023-07-31T15:41:29;22.50;99.90
4518;DHT22;2271;49.464;11.070;2023-07-31T15:43:57;22.40;99.90
4518;DHT22;2271;49.464;11.070;2023-07-31T15:46:23;22.40;99.90
4518;DHT22;2271;49.464;11.070;2023-07-31T15:48:48;22.40;99.90